Time;durP1;ratioP1;P1;durP2;ratioP2;P2;SDS_P1;SDS_P2;PMS_P1;PMS_P2;Temp;Humidity;BMP_temperature;BMP_pressure;BME280_temperature;BME280_humidity;BME280_pressure;Samples;Min_cycle;Max_cycle;Signal;HPM_P1;HPM_P2
2021/12/07 00:01:43;;;;;;;5.05;3.15;;;5.90;56.60;;;;;;4995690;28;20196;-73
2021/12/07 00:04:09;;;;;;;7.28;3.20;;;6.00;56.30;;;;;;4995569;28;20226;-71
2021/12/07 00:06:36;;;;;;;6.43;3.00;;;6.10;56.40;;;;;;4995330;28;20219;-73
2021/12/07 00:09:06;;;;;;;7.40;3.33;;;6.00;56.80;;;;;;4995432;28;20254;-72
2021/12/07 00:11:33;;;;;;;8.82;3.17;;;5.90;57.00;;;;;;4995271;28;20227;-72
2021/12/07 00:13:59;;;;;;;4.30;3.05;;;5.90;57.50;;;;;;4995415;28;20203;-72
2021/12/07 00:16:26;;;;;;;9.10;3.67;;;5.90;57.90;;;;;;4995341;28;20176;-73
2021/12/07 00:18:53;;;;;;;9.02;3.55;;;5.50;58.60;;;;;;4977971;28;20643;-71
2021/12/07 00:21:20;;;;;;;7.63;3.58;;;5.50;58.60;;;;;;4994484;28;20778;-72
2021/12/07 00:23:48;;;;;;;5.88;3.30;;;5.40;59.40;;;;;;4994958;28;20176;-73
2021/12/07 00:26:14;;;;;;;6.70;3.22;;;5.20;60.20;;;;;;4977676;28;20219;-72
2021/12/07 00:28:41;;;;;;;5.13;3.10;;;5.20;60.80;;;;;;4995158;28;20527;-71
2021/12/07 00:31:13;;;;;;;4.38;3.00;;;5.00;60.40;;;;;;4995166;28;20658;-72
2021/12/07 00:33:48;;;;;;;7.18;3.10;;;5.10;60.50;;;;;;4994951;28;20168;-73
2021/12/07 00:36:14;;;;;;;6.07;3.10;;;5.00;60.80;;;;;;4995002;28;20175;-72
2021/12/07 00:38:40;;;;;;;6.63;3.65;;;4.90;61.80;;;;;;4995020;28;20190;-73
2021/12/07 00:41:06;;;;;;;6.63;3.72;;;4.90;61.50;;;;;;4977164;28;20219;-73
2021/12/07 00:43:33;;;;;;;5.78;3.10;;;5.00;61.40;;;;;;4995074;28;20250;-66
2021/12/07 00:46:01;;;;;;;7.75;3.92;;;4.90;61.60;;;;;;4994617;28;20223;-72
2021/12/07 00:48:28;;;;;;;4.70;2.90;;;4.90;61.40;;;;;;4994418;28;20207;-72
2021/12/07 00:50:57;;;;;;;9.00;3.05;;;5.20;59.00;;;;;;4994532;28;20246;-72
2021/12/07 00:53:25;;;;;;;4.78;2.65;;;5.50;57.80;;;;;;4994652;28;20180;-71
2021/12/07 00:55:53;;;;;;;4.63;3.00;;;5.50;57.60;;;;;;4994778;28;20207;-71
2021/12/07 00:58:23;;;;;;;4.63;2.50;;;5.60;57.70;;;;;;4977030;28;20233;-71
2021/12/07 01:01:05;;;;;;;6.40;2.97;;;5.70;57.20;;;;;;4976826;28;20203;-74
2021/12/07 01:03:31;;;;;;;5.60;2.88;;;5.70;56.00;;;;;;4994420;28;20188;-69
2021/12/07 01:06:44;;;;;;;5.55;3.22;;;5.70;55.50;;;;;;4994258;28;20228;-73
2021/12/07 01:25:29;;;;;;;7.93;3.08;;;6.00;53.90;;;;;;4993958;28;20233;-72
2021/12/07 01:27:59;;;;;;;3.88;2.38;;;6.00;54.70;;;;;;4993804;28;20190;-73
2021/12/07 01:31:06;;;;;;;6.45;3.15;;;5.90;55.30;;;;;;4994023;28;20199;-68
2021/12/07 01:33:49;;;;;;;4.05;2.72;;;5.60;56.90;;;;;;4990849;28;20205;-73
2021/12/07 01:39:49;;;;;;;6.03;2.75;;;5.10;58.70;;;;;;4993840;28;20185;-67
2021/12/07 01:46:55;;;;;;;6.82;2.97;;;5.10;59.00;;;;;;4993599;28;20575;-71
2021/12/07 02:00:10;;;;;;;3.85;2.28;;;4.70;61.40;;;;;;4993736;28;20218;-71
2021/12/07 02:02:36;;;;;;;6.25;2.70;;;4.70;59.60;;;;;;4993486;28;20179;-71
2021/12/07 02:05:03;;;;;;;5.13;2.80;;;4.60;60.00;;;;;;4993394;28;20223;-69
2021/12/07 02:07:30;;;;;;;5.70;2.65;;;4.60;59.70;;;;;;4993327;28;20217;-70
2021/12/07 02:09:59;;;;;;;3.28;2.20;;;4.60;60.70;;;;;;4993533;28;20218;-72
2021/12/07 02:12:25;;;;;;;4.57;2.22;;;4.50;60.50;;;;;;4993498;28;20212;-73
2021/12/07 02:14:51;;;;;;;3.53;2.50;;;4.40;62.20;;;;;;4976017;28;20182;-72
2021/12/07 02:17:24;;;;;;;4.35;2.40;;;4.40;61.50;;;;;;4993626;28;20175;-72
2021/12/07 02:19:50;;;;;;;4.07;2.70;;;4.30;61.20;;;;;;4993165;28;20202;-72
2021/12/07 02:22:17;;;;;;;4.13;2.58;;;4.50;60.60;;;;;;4993318;28;20176;-70
2021/12/07 02:24:43;;;;;;;5.53;2.63;;;4.50;60.70;;;;;;4993351;28;20172;-71
2021/12/07 02:27:09;;;;;;;4.70;2.67;;;4.50;60.20;;;;;;4993663;28;20627;-72
2021/12/07 02:29:35;;;;;;;5.25;2.47;;;4.70;59.10;;;;;;4993240;28;20172;-71
2021/12/07 02:32:02;;;;;;;4.40;2.65;;;4.80;59.00;;;;;;4993389;28;20897;-69
2021/12/07 02:34:28;;;;;;;6.28;3.25;;;4.50;59.90;;;;;;4993627;28;20175;-70
2021/12/07 02:36:54;;;;;;;5.15;3.13;;;4.40;60.60;;;;;;4993169;28;20604;-73
2021/12/07 02:39:32;;;;;;;6.68;2.55;;;4.40;61.30;;;;;;4993111;28;20183;-73
2021/12/07 02:41:58;;;;;;;4.78;2.80;;;4.30;61.50;;;;;;4993296;28;20290;-73
2021/12/07 02:44:24;;;;;;;5.03;2.58;;;4.20;61.80;;;;;;4993438;28;20549;-74
2021/12/07 02:46:50;;;;;;;3.50;2.58;;;4.20;62.20;;;;;;4997158;28;20210;-73
2021/12/07 02:49:16;;;;;;;6.80;2.72;;;4.20;62.80;;;;;;4996747;28;20175;-69
2021/12/07 02:51:41;;;;;;;6.45;2.85;;;4.10;63.00;;;;;;4996971;28;20199;-72
2021/12/07 02:54:07;;;;;;;5.35;3.05;;;4.00;63.30;;;;;;4996866;28;20175;-71
2021/12/07 02:56:33;;;;;;;5.10;3.13;;;4.00;63.70;;;;;;4997000;28;20223;-73
2021/12/07 02:59:02;;;;;;;4.50;2.80;;;4.00;64.50;;;;;;4979338;28;20218;-73
2021/12/07 03:01:35;;;;;;;4.78;2.80;;;4.00;63.00;;;;;;4996391;28;20754;-72
2021/12/07 03:04:08;;;;;;;4.85;2.85;;;3.90;64.10;;;;;;4996543;28;20227;-71
2021/12/07 03:06:55;;;;;;;7.05;2.47;;;3.90;63.50;;;;;;4996378;28;20218;-73
2021/12/07 03:26:08;;;;;;;5.47;2.92;;;3.60;65.80;;;;;;4996374;28;20278;-73
2021/12/07 03:28:40;;;;;;;4.15;2.50;;;3.60;65.80;;;;;;4996440;28;20674;-72
2021/12/07 03:31:07;;;;;;;4.53;2.42;;;3.80;64.10;;;;;;4996162;28;20192;-73
2021/12/07 03:33:33;;;;;;;4.07;2.67;;;3.70;64.80;;;;;;4996318;28;20179;-72
2021/12/07 03:35:59;;;;;;;3.67;2.53;;;3.80;64.30;;;;;;4996126;28;20608;-72
2021/12/07 03:38:25;;;;;;;6.88;2.67;;;3.80;64.40;;;;;;4978900;28;20179;-73
2021/12/07 03:40:51;;;;;;;4.05;2.78;;;4.00;61.70;;;;;;4996083;28;20251;-71
2021/12/07 03:43:18;;;;;;;5.05;2.60;;;4.30;59.80;;;;;;4995976;28;20650;-71
2021/12/07 03:45:44;;;;;;;4.85;2.40;;;4.60;58.30;;;;;;4996025;28;20207;-73
2021/12/07 03:48:11;;;;;;;6.82;2.35;;;4.80;57.60;;;;;;4995985;28;20178;-72
2021/12/07 03:50:36;;;;;;;4.20;2.10;;;4.90;56.60;;;;;;4995826;28;20678;-71
2021/12/07 03:53:03;;;;;;;3.65;2.70;;;4.90;56.50;;;;;;4996065;28;20183;-72
2021/12/07 03:55:29;;;;;;;3.83;1.92;;;5.00;55.90;;;;;;4995626;28;20551;-71
2021/12/07 03:57:54;;;;;;;2.05;1.58;;;5.10;55.80;;;;;;4994642;28;20203;-69
2021/12/07 04:00:24;;;;;;;4.22;2.65;;;5.10;56.30;;;;;;4995408;28;20237;-72
2021/12/07 04:02:52;;;;;;;4.50;1.92;;;5.20;55.80;;;;;;4995716;28;20207;-72
2021/12/07 04:05:19;;;;;;;3.25;1.83;;;5.30;55.00;;;;;;4995116;28;20238;-72
2021/12/07 04:07:46;;;;;;;3.22;1.98;;;5.20;54.70;;;;;;4995830;28;20196;-71
2021/12/07 04:10:16;;;;;;;3.67;1.83;;;5.30;54.90;;;;;;4995618;28;20713;-71
2021/12/07 04:12:42;;;;;;;4.47;1.92;;;5.20;55.40;;;;;;4995457;28;20175;-73
2021/12/07 04:15:10;;;;;;;3.85;2.45;;;5.10;55.30;;;;;;4995436;28;20171;-71
2021/12/07 04:17:36;;;;;;;4.35;2.05;;;5.20;55.20;;;;;;4995210;28;20250;-71
2021/12/07 04:20:05;;;;;;;5.18;1.90;;;5.30;54.60;;;;;;4995343;28;20195;-71
2021/12/07 04:22:31;;;;;;;4.53;2.30;;;5.40;53.60;;;;;;4995486;28;20184;-72
2021/12/07 04:24:56;;;;;;;3.47;2.10;;;5.40;53.40;;;;;;4995305;28;20176;-73
2021/12/07 04:27:22;;;;;;;3.85;1.90;;;5.50;53.10;;;;;;4995202;28;20214;-72
2021/12/07 04:29:48;;;;;;;2.17;1.60;;;5.50;52.30;;;;;;4995084;28;20254;-70
2021/12/07 04:32:14;;;;;;;1.92;1.73;;;5.50;52.70;;;;;;4995392;28;20212;-73
2021/12/07 04:34:40;;;;;;;5.50;2.05;;;5.60;52.40;;;;;;4995246;28;20632;-73
2021/12/07 04:37:06;;;;;;;2.58;1.95;;;5.60;51.00;;;;;;4994946;28;20179;-71
2021/12/07 04:39:32;;;;;;;2.97;1.95;;;5.50;51.60;;;;;;4995105;28;20194;-69
2021/12/07 04:41:58;;;;;;;2.83;2.22;;;5.40;51.50;;;;;;4994727;28;20191;-71
2021/12/07 04:44:24;;;;;;;2.63;1.63;;;5.50;50.90;;;;;;4995085;28;20175;-72
2021/12/07 04:47:10;;;;;;;4.35;1.75;;;5.50;51.10;;;;;;4994859;28;20207;-73
2021/12/07 04:50:19;;;;;;;2.25;1.70;;;5.50;50.40;;;;;;4994727;28;20631;-70
2021/12/07 04:58:04;;;;;;;2.60;1.80;;;5.50;51.10;;;;;;4995012;28;20601;-71
2021/12/07 05:00:30;;;;;;;4.13;2.10;;;5.70;50.50;;;;;;4994531;28;20188;-72
2021/12/07 05:03:02;;;;;;;3.28;1.67;;;5.70;50.10;;;;;;4994631;28;20585;-70
2021/12/07 05:05:33;;;;;;;2.60;1.60;;;5.70;50.00;;;;;;4994300;28;20315;-73
2021/12/07 05:08:03;;;;;;;1.90;1.35;;;5.60;50.20;;;;;;4995501;28;20183;-74
2021/12/07 05:13:19;;;;;;;2.90;1.90;;;5.70;50.20;;;;;;4994951;28;20544;-71
2021/12/07 05:18:40;;;;;;;2.72;1.80;;;5.90;49.80;;;;;;4994890;28;20174;-72
2021/12/07 05:23:55;;;;;;;2.95;1.73;;;5.90;49.70;;;;;;4993331;28;20427;-68
2021/12/07 05:24:05;;;;;;;5.78;1.83;;;5.90;49.90;;;;;;4993357;28;20175;-70
2021/12/07 05:40:07;;;;;;;2.35;1.40;;;5.80;49.70;;;;;;4993646;28;20367;-71
2021/12/07 05:42:39;;;;;;;2.63;1.70;;;5.80;49.70;;;;;;4994156;28;20983;-70
2021/12/07 05:45:07;;;;;;;4.45;1.95;;;5.70;49.70;;;;;;4994037;28;20180;-73
2021/12/07 05:47:33;;;;;;;3.30;1.77;;;5.70;49.80;;;;;;4994075;28;20221;-71
2021/12/07 05:49:59;;;;;;;4.18;1.67;;;5.80;49.40;;;;;;4993876;28;20270;-71
2021/12/07 05:52:25;;;;;;;3.30;1.90;;;5.80;49.50;;;;;;4993839;28;20263;-71
2021/12/07 05:54:51;;;;;;;3.55;1.95;;;5.80;50.10;;;;;;4993645;28;20280;-71
2021/12/07 05:57:16;;;;;;;3.22;1.77;;;5.80;49.60;;;;;;4993735;28;20190;-70
2021/12/07 05:59:42;;;;;;;2.83;1.65;;;5.90;49.70;;;;;;4976128;28;20634;-72
2021/12/07 06:02:08;;;;;;;5.10;2.10;;;5.90;49.20;;;;;;4993924;28;20674;-72
2021/12/07 06:04:34;;;;;;;5.18;2.13;;;5.90;49.40;;;;;;4985396;28;20224;-72
2021/12/07 06:07:00;;;;;;;4.43;1.88;;;5.80;49.60;;;;;;4974173;28;20299;-71
2021/12/07 06:09:28;;;;;;;3.47;2.03;;;5.70;48.90;;;;;;4974064;28;20177;-72
2021/12/07 06:11:54;;;;;;;4.55;2.05;;;5.70;50.10;;;;;;4974490;28;20207;-71
2021/12/07 06:14:29;;;;;;;2.13;1.73;;;5.70;50.00;;;;;;4957170;28;20176;-72
2021/12/07 06:16:56;;;;;;;3.42;2.00;;;5.70;50.10;;;;;;4974167;28;20598;-71
2021/12/07 06:19:22;;;;;;;4.60;1.88;;;5.80;50.60;;;;;;4974357;28;20198;-73
2021/12/07 06:21:48;;;;;;;3.85;2.25;;;5.70;50.80;;;;;;4978152;28;20196;-68
2021/12/07 06:24:13;;;;;;;2.88;1.83;;;5.50;51.40;;;;;;4978154;28;20240;-72
2021/12/07 06:26:39;;;;;;;3.13;2.25;;;5.50;51.00;;;;;;4978227;28;20671;-68
2021/12/07 06:29:05;;;;;;;3.97;2.58;;;5.60;51.20;;;;;;4978221;28;20180;-69
2021/12/07 06:31:31;;;;;;;4.30;2.30;;;5.70;58.70;;;;;;4978105;28;20568;-62
2021/12/07 06:33:57;;;;;;;5.85;2.08;;;6.30;58.90;;;;;;4977909;28;20231;-64
2021/12/07 06:36:24;;;;;;;5.18;2.38;;;6.60;53.40;;;;;;4961471;28;20180;-64
2021/12/07 06:38:51;;;;;;;4.72;2.50;;;6.20;52.70;;;;;;4977219;28;20628;-62
2021/12/07 06:41:17;;;;;;;3.28;2.15;;;6.00;51.80;;;;;;4977833;28;20723;-62
2021/12/07 06:43:43;;;;;;;2.85;2.10;;;6.30;52.00;;;;;;4978081;28;20590;-64
2021/12/07 06:46:09;;;;;;;2.78;1.75;;;6.30;50.40;;;;;;4977828;28;20547;-68
2021/12/07 06:48:35;;;;;;;4.78;2.05;;;6.50;50.80;;;;;;4977794;28;20194;-64
2021/12/07 06:51:02;;;;;;;3.13;2.28;;;6.90;50.60;;;;;;4977595;28;20256;-63
2021/12/07 06:53:30;;;;;;;2.83;1.80;;;7.10;49.20;;;;;;4977677;28;20187;-66
2021/12/07 06:55:55;;;;;;;4.15;2.30;;;7.10;49.50;;;;;;4977970;28;20184;-69
2021/12/07 06:58:21;;;;;;;4.43;2.45;;;7.40;49.90;;;;;;4977714;28;20179;-64
2021/12/07 07:00:47;;;;;;;3.65;2.10;;;6.80;46.70;;;;;;4977628;28;20683;-70
2021/12/07 07:03:13;;;;;;;3.95;2.13;;;6.50;47.30;;;;;;4977572;28;20177;-72
2021/12/07 07:05:38;;;;;;;6.32;1.95;;;6.30;47.60;;;;;;4977293;28;20232;-70
2021/12/07 07:08:04;;;;;;;4.32;2.65;;;6.20;48.10;;;;;;4977409;28;20176;-70
2021/12/07 07:10:30;;;;;;;4.25;2.35;;;6.10;49.30;;;;;;4980543;28;20228;-69
2021/12/07 07:12:56;;;;;;;4.30;2.20;;;6.00;48.70;;;;;;4984067;28;20645;-71
2021/12/07 07:15:22;;;;;;;4.35;2.10;;;6.00;48.90;;;;;;4984669;28;20177;-68
2021/12/07 07:17:48;;;;;;;3.65;1.85;;;6.00;48.70;;;;;;4983988;28;20177;-70
2021/12/07 07:20:17;;;;;;;5.07;2.58;;;5.90;48.80;;;;;;4967592;28;20219;-67
2021/12/07 07:22:44;;;;;;;2.85;1.50;;;6.00;49.10;;;;;;4956752;28;20244;-65
2021/12/07 07:25:11;;;;;;;2.92;1.35;;;6.10;48.80;;;;;;4959171;28;20201;-69
2021/12/07 07:27:37;;;;;;;1.98;1.40;;;6.00;48.10;;;;;;4956616;28;20212;-68
2021/12/07 07:30:05;;;;;;;3.75;1.90;;;6.00;47.30;;;;;;4959176;28;20225;-67
2021/12/07 07:32:31;;;;;;;5.13;2.13;;;5.90;47.50;;;;;;4947688;28;20239;-66
2021/12/07 07:34:57;;;;;;;3.83;1.50;;;6.00;48.40;;;;;;4977086;28;20180;-67
2021/12/07 07:37:23;;;;;;;2.60;1.60;;;5.90;46.80;;;;;;4978039;28;20181;-68
2021/12/07 07:39:49;;;;;;;3.28;1.90;;;6.10;47.50;;;;;;4962711;28;20200;-65
2021/12/07 07:42:14;;;;;;;2.53;1.70;;;6.20;47.50;;;;;;4956228;28;20181;-69
2021/12/07 07:44:40;;;;;;;2.83;1.38;;;6.20;46.80;;;;;;4937567;28;20659;-67
2021/12/07 07:47:07;;;;;;;4.03;1.50;;;6.10;46.90;;;;;;4954455;28;20216;-66
2021/12/07 07:49:33;;;;;;;4.18;1.50;;;6.20;46.70;;;;;;4957365;28;20331;-70
2021/12/07 07:51:58;;;;;;;3.25;1.73;;;6.40;46.50;;;;;;4960233;28;20608;-63
2021/12/07 07:54:24;;;;;;;3.42;1.77;;;6.40;46.40;;;;;;4954680;28;20196;-65
2021/12/07 07:56:50;;;;;;;2.58;1.35;;;6.50;46.50;;;;;;4955605;28;20235;-62
2021/12/07 07:59:16;;;;;;;2.85;1.30;;;6.70;46.00;;;;;;4955730;28;20749;-65
2021/12/07 08:01:42;;;;;;;1.45;1.10;;;6.80;45.60;;;;;;4955733;28;20208;-68
2021/12/07 08:04:08;;;;;;;2.65;1.20;;;6.80;45.00;;;;;;4960223;28;20220;-69
2021/12/07 08:06:34;;;;;;;3.53;1.27;;;6.90;46.60;;;;;;4977617;28;20262;-66
2021/12/07 08:09:00;;;;;;;1.50;1.40;;;7.00;45.20;;;;;;4957834;28;20269;-63
2021/12/07 08:11:26;;;;;;;1.50;1.00;;;7.00;44.50;;;;;;4977783;28;20192;-72
2021/12/07 08:13:52;;;;;;;1.40;1.30;;;7.10;44.10;;;;;;4975070;28;20206;-71
2021/12/07 08:16:18;;;;;;;2.28;1.48;;;6.90;44.50;;;;;;4977345;28;20188;-70
2021/12/07 08:18:45;;;;;;;3.67;1.40;;;6.90;44.90;;;;;;4975308;28;20207;-65
2021/12/07 08:21:12;;;;;;;2.83;1.42;;;7.00;45.00;;;;;;4975527;28;20196;-62
2021/12/07 08:23:38;;;;;;;3.60;1.63;;;7.00;44.80;;;;;;4975923;28;20184;-64
2021/12/07 08:26:06;;;;;;;2.85;1.63;;;7.00;46.90;;;;;;4975548;28;20212;-64
2021/12/07 08:28:32;;;;;;;3.10;1.73;;;7.00;45.60;;;;;;4975869;28;20546;-64
2021/12/07 08:30:58;;;;;;;2.38;1.60;;;7.00;45.50;;;;;;4975178;28;20196;-67
2021/12/07 08:33:24;;;;;;;2.40;1.75;;;7.10;44.80;;;;;;4975609;28;20186;-63
2021/12/07 08:35:50;;;;;;;5.10;2.38;;;6.90;45.50;;;;;;4974982;28;20636;-69
2021/12/07 08:38:16;;;;;;;2.78;1.80;;;7.10;46.40;;;;;;4974120;28;20191;-62
2021/12/07 08:40:42;;;;;;;2.80;1.85;;;7.10;45.30;;;;;;4974872;28;20200;-65
2021/12/07 08:43:11;;;;;;;4.43;1.90;;;7.10;45.60;;;;;;4974632;28;20176;-63
2021/12/07 08:45:41;;;;;;;2.90;1.80;;;7.30;45.00;;;;;;4975243;28;20247;-66
2021/12/07 08:48:08;;;;;;;2.28;1.77;;;7.20;45.10;;;;;;4975181;28;20176;-66
2021/12/07 08:50:35;;;;;;;4.43;1.80;;;7.20;44.90;;;;;;4975282;28;20200;-63
2021/12/07 08:53:07;;;;;;;4.32;1.90;;;7.10;44.90;;;;;;4975406;28;20176;-64
2021/12/07 09:01:05;;;;;;;2.60;1.70;;;7.40;44.70;;;;;;4975594;28;20240;-67
2021/12/07 09:03:31;;;;;;;2.95;1.55;;;7.40;44.10;;;;;;4975278;28;20203;-59
2021/12/07 09:05:57;;;;;;;2.60;1.52;;;7.30;44.70;;;;;;4955822;28;20622;-68
2021/12/07 09:08:22;;;;;;;2.90;1.65;;;7.40;44.90;;;;;;4955714;29;20260;-68
2021/12/07 09:10:49;;;;;;;2.05;1.40;;;7.40;45.30;;;;;;4955455;29;20247;-66
2021/12/07 09:13:15;;;;;;;3.45;2.10;;;7.60;45.30;;;;;;4955746;28;20231;-70
2021/12/07 09:15:41;;;;;;;1.60;1.50;;;7.50;45.60;;;;;;4955260;28;20180;-62
2021/12/07 09:18:07;;;;;;;1.80;1.30;;;7.60;44.30;;;;;;4959969;28;20205;-60
2021/12/07 09:20:33;;;;;;;2.15;1.58;;;7.60;44.10;;;;;;4957117;28;20319;-60
2021/12/07 09:22:59;;;;;;;2.90;1.40;;;7.70;43.80;;;;;;4956883;28;20180;-58
2021/12/07 09:25:26;;;;;;;1.85;1.30;;;7.80;51.20;;;;;;4939765;28;20189;-60
2021/12/07 09:27:52;;;;;;;3.97;1.60;;;7.90;43.10;;;;;;4954967;29;20216;-60
2021/12/07 09:30:19;;;;;;;2.03;1.50;;;7.80;42.30;;;;;;4955632;29;20228;-61
2021/12/07 09:32:46;;;;;;;1.48;1.10;;;7.60;42.80;;;;;;4955418;29;20208;-60
2021/12/07 09:35:14;;;;;;;2.88;1.27;;;7.80;43.40;;;;;;4955063;29;20169;-60
2021/12/07 09:37:40;;;;;;;3.88;2.13;;;7.80;42.20;;;;;;4955258;29;20186;-61
2021/12/07 09:40:10;;;;;;;2.10;1.50;;;7.40;43.20;;;;;;4955269;29;20231;-60
2021/12/07 09:42:37;;;;;;;1.30;1.17;;;7.40;43.70;;;;;;4954804;28;20180;-60
2021/12/07 09:45:05;;;;;;;5.03;1.50;;;7.40;44.20;;;;;;4956883;28;20189;-62
2021/12/07 09:47:31;;;;;;;1.67;1.27;;;7.50;43.70;;;;;;4956672;28;20204;-61
2021/12/07 09:49:57;;;;;;;2.63;1.65;;;7.60;43.60;;;;;;4954398;28;20656;-61
2021/12/07 09:52:25;;;;;;;2.35;1.30;;;7.60;44.60;;;;;;4953808;28;20600;-61
2021/12/07 09:54:53;;;;;;;2.92;1.83;;;7.70;44.10;;;;;;4954032;28;20183;-62
2021/12/07 09:57:19;;;;;;;2.67;1.30;;;7.50;44.10;;;;;;4956621;28;20188;-64
2021/12/07 09:59:45;;;;;;;2.78;1.60;;;7.70;43.80;;;;;;4956937;28;20187;-62
2021/12/07 10:02:11;;;;;;;1.77;1.27;;;7.70;43.80;;;;;;4964431;28;20184;-60
2021/12/07 10:04:37;;;;;;;2.03;1.30;;;7.70;43.80;;;;;;4959906;28;20695;-62
2021/12/07 10:07:03;;;;;;;5.55;1.80;;;7.90;44.10;;;;;;4973191;28;20327;-62
2021/12/07 10:09:29;;;;;;;3.83;1.52;;;7.90;43.80;;;;;;4973593;28;20533;-62
2021/12/07 10:11:55;;;;;;;4.60;1.80;;;7.90;44.10;;;;;;4975628;28;20679;-60
2021/12/07 10:14:21;;;;;;;3.70;1.67;;;7.90;44.40;;;;;;4973405;28;20191;-66
2021/12/07 10:16:50;;;;;;;10.38;3.13;;;7.90;44.10;;;;;;4972614;28;20192;-61
2021/12/07 10:19:31;;;;;;;5.50;1.40;;;8.10;43.00;;;;;;4958682;28;20624;-65
2021/12/07 10:22:08;;;;;;;3.22;1.50;;;8.30;42.90;;;;;;4973598;28;20215;-62
2021/12/07 10:24:40;;;;;;;1.60;1.50;;;8.50;41.90;;;;;;4974547;28;20187;-69
2021/12/07 10:27:08;;;;;;;3.45;1.55;;;8.50;42.00;;;;;;4977948;28;20671;-66
2021/12/07 10:29:34;;;;;;;3.92;1.60;;;8.50;41.90;;;;;;4974171;28;20182;-67
2021/12/07 10:32:05;;;;;;;3.13;2.00;;;8.40;42.30;;;;;;4973691;28;20212;-66
2021/12/07 10:34:36;;;;;;;2.33;1.70;;;8.40;42.50;;;;;;4973928;28;20168;-68
2021/12/07 10:37:15;;;;;;;2.30;1.70;;;8.40;41.50;;;;;;4972915;28;20220;-64
2021/12/07 10:39:46;;;;;;;2.60;1.60;;;8.50;41.60;;;;;;4988801;28;20175;-67
2021/12/07 10:42:23;;;;;;;2.60;1.27;;;8.60;41.80;;;;;;4991671;28;20184;-66
2021/12/07 10:44:49;;;;;;;2.03;1.10;;;8.50;40.50;;;;;;4978496;28;20188;-67
2021/12/07 10:47:17;;;;;;;3.15;1.23;;;8.80;40.70;;;;;;4975078;28;20227;-69
2021/12/07 10:49:51;;;;;;;2.30;1.20;;;8.90;40.30;;;;;;4972926;28;20259;-65
2021/12/07 10:52:19;;;;;;;1.55;1.20;;;9.10;39.40;;;;;;4975208;28;20273;-67
2021/12/07 10:54:56;;;;;;;0.85;0.82;;;9.10;39.20;;;;;;4972605;28;20190;-67
2021/12/07 10:57:34;;;;;;;2.20;1.25;;;8.90;38.40;;;;;;4973557;28;20187;-60
2021/12/07 11:00:36;;;;;;;10.93;4.45;;;9.10;38.90;;;;;;4973642;28;20684;-68
2021/12/07 11:03:25;;;;;;;7.38;1.90;;;9.20;38.00;;;;;;4973517;28;20187;-67
2021/12/07 11:05:54;;;;;;;2.13;1.10;;;9.30;37.60;;;;;;4974336;28;20235;-71
2021/12/07 11:08:22;;;;;;;2.20;0.90;;;9.20;38.40;;;;;;4977393;28;20275;-61
2021/12/07 11:10:50;;;;;;;1.52;0.90;;;9.30;38.00;;;;;;4976899;28;20750;-65
2021/12/07 11:13:34;;;;;;;1.33;0.88;;;9.40;37.00;;;;;;4976692;28;20275;-64
2021/12/07 11:16:06;;;;;;;2.85;0.93;;;9.60;36.10;;;;;;4995106;28;20536;-67
2021/12/07 11:18:38;;;;;;;1.33;0.80;;;9.70;35.30;;;;;;4988888;28;20227;-64
2021/12/07 11:21:15;;;;;;;1.95;1.00;;;9.70;36.10;;;;;;4981448;28;20963;-69
2021/12/07 11:23:51;;;;;;;0.80;0.80;;;9.80;36.50;;;;;;4981095;28;20185;-70
2021/12/07 11:31:40;;;;;;;1.45;0.80;;;9.60;34.40;;;;;;4983871;28;20702;-66
2021/12/07 11:34:22;;;;;;;1.33;0.80;;;9.40;35.10;;;;;;4979510;28;20623;-68
2021/12/07 11:36:54;;;;;;;0.80;0.80;;;9.70;35.00;;;;;;4993456;28;20267;-67
2021/12/07 11:39:32;;;;;;;0.70;0.70;;;10.00;35.00;;;;;;4994761;28;20172;-69
2021/12/07 11:42:23;;;;;;;2.55;0.82;;;10.10;34.80;;;;;;4978801;28;20218;-73
2021/12/07 11:44:58;;;;;;;0.60;0.60;;;10.40;35.50;;;;;;4972699;28;20660;-67
2021/12/07 11:47:28;;;;;;;1.95;0.90;;;10.20;33.60;;;;;;4975952;28;20314;-66
2021/12/07 11:49:55;;;;;;;1.15;0.80;;;10.10;34.30;;;;;;4978595;28;20184;-64
2021/12/07 11:52:22;;;;;;;31.83;10.43;;;10.00;33.80;;;;;;4976010;28;20259;-63
2021/12/07 11:54:48;;;;;;;2.40;1.67;;;10.10;34.30;;;;;;4976497;28;20563;-63
2021/12/07 11:57:16;;;;;;;1.27;0.90;;;10.20;33.40;;;;;;4976314;28;20176;-62
2021/12/07 11:59:45;;;;;;;2.55;1.05;;;10.40;33.60;;;;;;4976968;28;20232;-65
2021/12/07 12:02:10;;;;;;;4.80;1.30;;;10.50;33.40;;;;;;4959330;28;20634;-62
2021/12/07 12:04:36;;;;;;;7.10;2.38;;;10.60;33.40;;;;;;4973244;28;20314;-62
2021/12/07 12:07:03;;;;;;;3.13;1.10;;;10.80;34.70;;;;;;4979421;28;20224;-66
2021/12/07 12:09:30;;;;;;;1.90;0.88;;;10.70;34.50;;;;;;4963861;28;20176;-64
2021/12/07 12:12:26;;;;;;;2.95;1.20;;;10.30;33.60;;;;;;4976366;28;20795;-69
2021/12/07 12:15:23;;;;;;;5.57;1.00;;;10.20;34.00;;;;;;4979014;28;20187;-66
2021/12/07 12:18:05;;;;;;;2.53;0.80;;;10.00;34.20;;;;;;4978445;28;20191;-73
2021/12/07 12:21:04;;;;;;;1.50;0.80;;;10.00;34.60;;;;;;4986040;28;20192;-67
2021/12/07 12:24:01;;;;;;;1.38;1.00;;;10.20;34.60;;;;;;4962540;28;20618;-64
2021/12/07 12:26:27;;;;;;;2.90;0.75;;;10.40;36.30;;;;;;4992246;28;20212;-63
2021/12/07 12:28:55;;;;;;;1.17;0.80;;;10.50;36.50;;;;;;4976129;28;20180;-68
2021/12/07 12:31:49;;;;;;;2.53;1.20;;;10.60;35.20;;;;;;4958847;28;20706;-64
2021/12/07 12:34:23;;;;;;;1.73;1.20;;;10.60;35.70;;;;;;4976241;28;20682;-61
2021/12/07 12:37:15;;;;;;;1.20;1.10;;;10.80;36.90;;;;;;4959164;28;20195;-66
2021/12/07 12:39:48;;;;;;;1.73;1.10;;;10.80;37.20;;;;;;4976054;28;20180;-63
2021/12/07 12:42:29;;;;;;;1.42;1.00;;;10.90;38.10;;;;;;4992463;28;20207;-63
2021/12/07 12:45:27;;;;;;;1.10;0.82;;;11.00;37.80;;;;;;4988931;28;20636;-62
2021/12/07 12:48:02;;;;;;;2.33;1.02;;;10.90;38.60;;;;;;4963700;28;20223;-62
2021/12/07 12:50:31;;;;;;;1.50;1.20;;;10.90;39.00;;;;;;4975857;28;20212;-64
2021/12/07 12:53:08;;;;;;;1.80;0.98;;;10.90;38.90;;;;;;4990067;28;20179;-69
2021/12/07 12:55:37;;;;;;;1.92;1.20;;;11.00;38.20;;;;;;4992167;28;20183;-66
2021/12/07 12:58:15;;;;;;;1.35;1.00;;;10.90;38.60;;;;;;4992065;28;20179;-65
2021/12/07 13:00:58;;;;;;;1.80;0.90;;;10.90;38.80;;;;;;4989850;28;20569;-60
2021/12/07 13:03:25;;;;;;;1.10;1.00;;;10.80;38.60;;;;;;4991888;28;20651;-62
2021/12/07 13:06:01;;;;;;;2.05;1.00;;;10.60;39.00;;;;;;4971752;28;20710;-63
2021/12/07 13:08:27;;;;;;;2.47;0.90;;;10.40;40.70;;;;;;4989823;28;20749;-63
2021/12/07 13:11:03;;;;;;;0.70;0.70;;;10.40;40.60;;;;;;4990770;28;20207;-63
2021/12/07 13:13:33;;;;;;;1.58;1.10;;;10.40;40.60;;;;;;4981747;28;20259;-67
2021/12/07 13:16:20;;;;;;;1.17;0.90;;;10.30;41.00;;;;;;4971357;28;20180;-63
2021/12/07 13:18:45;;;;;;;1.33;0.80;;;10.30;41.40;;;;;;4972249;28;20243;-65
2021/12/07 13:21:23;;;;;;;2.53;0.98;;;10.30;41.30;;;;;;4983970;28;20227;-67
2021/12/07 13:24:01;;;;;;;2.10;1.20;;;10.10;41.60;;;;;;4972332;28;20722;-69
2021/12/07 13:26:31;;;;;;;3.97;1.75;;;10.00;42.80;;;;;;4974705;28;20211;-62
2021/12/07 13:29:12;;;;;;;5.63;2.50;;;9.90;43.60;;;;;;4974178;28;20192;-64
2021/12/07 13:31:43;;;;;;;6.35;3.53;;;9.70;44.10;;;;;;4976885;28;20293;-61
2021/12/07 13:34:10;;;;;;;6.47;2.63;;;9.60;44.20;;;;;;4974435;28;20632;-69
2021/12/07 13:36:57;;;;;;;4.28;1.90;;;9.70;43.80;;;;;;4975421;28;20205;-70
2021/12/07 13:39:23;;;;;;;6.35;3.03;;;9.50;44.40;;;;;;4973517;28;20203;-72
2021/12/07 13:41:57;;;;;;;12.82;2.95;;;9.40;46.10;;;;;;4973254;28;20211;-63
2021/12/07 13:44:23;;;;;;;2.47;1.90;;;9.30;46.60;;;;;;4975297;28;20229;-61
2021/12/07 13:46:55;;;;;;;4.95;2.00;;;9.10;47.40;;;;;;4989246;28;20220;-62
2021/12/07 13:49:20;;;;;;;3.80;1.50;;;9.00;47.50;;;;;;4983280;28;20255;-69
2021/12/07 13:51:46;;;;;;;5.50;1.63;;;9.10;47.30;;;;;;4992632;28;20235;-67
2021/12/07 13:54:19;;;;;;;2.72;1.70;;;9.10;46.50;;;;;;4973479;28;20228;-62
2021/12/07 13:56:46;;;;;;;1.85;1.50;;;9.00;48.30;;;;;;4973636;28;20192;-71
2021/12/07 13:59:15;;;;;;;3.67;1.30;;;8.90;47.10;;;;;;4974584;28;20168;-61
2021/12/07 14:01:48;;;;;;;9.43;4.53;;;8.90;47.40;;;;;;4974428;28;20192;-66
2021/12/07 14:04:14;;;;;;;14.05;6.40;;;8.80;48.00;;;;;;4974186;28;20307;-68
2021/12/07 14:06:47;;;;;;;8.15;4.22;;;8.70;48.60;;;;;;4973785;28;20299;-59
2021/12/07 14:09:15;;;;;;;7.25;4.25;;;8.60;48.80;;;;;;4957007;28;20195;-66
2021/12/07 14:11:41;;;;;;;6.78;3.22;;;8.60;48.90;;;;;;4973954;28;20279;-61
2021/12/07 14:14:16;;;;;;;4.68;2.47;;;8.40;49.80;;;;;;4974222;28;20640;-60
2021/12/07 14:16:43;;;;;;;5.60;3.13;;;8.30;50.20;;;;;;4974217;28;20234;-65
2021/12/07 14:19:10;;;;;;;4.32;2.30;;;8.30;50.20;;;;;;4977049;28;20202;-68
2021/12/07 14:21:36;;;;;;;5.53;2.80;;;8.30;50.60;;;;;;4975967;28;20206;-67
2021/12/07 14:24:06;;;;;;;4.88;2.88;;;8.30;51.00;;;;;;4968764;28;20187;-62
2021/12/07 14:26:38;;;;;;;5.13;2.75;;;8.10;51.50;;;;;;4973207;28;20226;-65
2021/12/07 14:29:05;;;;;;;4.82;2.22;;;8.20;51.10;;;;;;4975834;28;20275;-63
2021/12/07 14:31:58;;;;;;;4.70;2.20;;;8.10;51.30;;;;;;4975985;28;20565;-63
2021/12/07 14:34:26;;;;;;;2.92;1.75;;;8.10;51.90;;;;;;4981393;28;20195;-64
2021/12/07 14:36:58;;;;;;;4.70;2.05;;;8.00;51.80;;;;;;4980617;28;20191;-63